Time;durP1;ratioP1;P1;durP2;ratioP2;P2;SDS_P1;SDS_P2;PMS_P1;PMS_P2;Temp;Humidity;BMP_temperature;BMP_pressure;BME280_temperature;BME280_humidity;BME280_pressure;Samples;Min_cycle;Max_cycle;Signal;HPM_P1;HPM_P2
2022/12/14 00:04:04;;;;;;;8.00;6.67;;;0.60;39.10;;;;;;10309340;28;20743;-71
2022/12/14 00:09:07;;;;;;;7.97;7.03;;;0.50;39.00;;;;;;10311216;28;20715;-71
2022/12/14 00:14:10;;;;;;;8.67;6.70;;;0.60;39.10;;;;;;10307978;28;20231;-71
2022/12/14 00:19:15;;;;;;;9.70;7.23;;;0.60;39.20;;;;;;10307060;28;20613;-71
2022/12/14 00:24:19;;;;;;;7.60;6.80;;;0.50;38.80;;;;;;10308280;28;20727;-71
2022/12/14 00:29:22;;;;;;;7.10;6.17;;;0.50;39.00;;;;;;10303228;28;20240;-71
2022/12/14 00:34:26;;;;;;;8.07;6.83;;;0.50;39.00;;;;;;10308413;28;20230;-72
2022/12/14 00:39:30;;;;;;;7.93;6.80;;;0.50;39.00;;;;;;10308137;28;20715;-71
2022/12/14 00:44:33;;;;;;;6.70;6.00;;;0.60;39.10;;;;;;10308315;28;20227;-71
2022/12/14 00:49:37;;;;;;;7.73;6.40;;;0.60;39.10;;;;;;10310378;28;20804;-71
2022/12/14 00:54:41;;;;;;;7.70;6.93;;;0.60;39.00;;;;;;10305499;28;20887;-71
2022/12/14 00:59:44;;;;;;;7.80;6.50;;;0.60;38.90;;;;;;10301916;28;20708;-71
2022/12/14 01:04:48;;;;;;;8.43;6.67;;;0.60;39.10;;;;;;10313699;28;20303;-71
2022/12/14 01:09:51;;;;;;;6.90;6.30;;;0.60;39.10;;;;;;10308896;28;20235;-71
2022/12/14 01:14:55;;;;;;;7.00;6.30;;;0.60;39.10;;;;;;10305952;28;20698;-71
2022/12/14 01:19:59;;;;;;;7.37;6.27;;;0.60;39.10;;;;;;10304838;28;20227;-71
2022/12/14 01:25:03;;;;;;;6.90;5.93;;;0.70;39.20;;;;;;10298994;28;20270;-71
2022/12/14 01:30:07;;;;;;;6.87;6.17;;;0.70;39.20;;;;;;10308522;28;20239;-71
2022/12/14 01:35:12;;;;;;;7.83;6.50;;;0.70;39.20;;;;;;10307855;28;20223;-71
2022/12/14 01:40:15;;;;;;;8.47;6.43;;;0.70;39.20;;;;;;10304523;28;20763;-71
2022/12/14 01:45:21;;;;;;;7.43;6.37;;;0.70;39.00;;;;;;10303914;28;20242;-71
2022/12/14 01:50:31;;;;;;;7.23;6.13;;;0.70;38.90;;;;;;10304343;28;20840;-71
2022/12/14 01:55:36;;;;;;;7.43;6.20;;;0.70;38.90;;;;;;10304240;28;20269;-71
2022/12/14 02:00:39;;;;;;;7.53;6.83;;;0.70;39.00;;;;;;10300801;28;20231;-71
2022/12/14 02:05:48;;;;;;;7.77;6.87;;;0.70;38.90;;;;;;10304900;28;20227;-71
2022/12/14 02:10:53;;;;;;;6.63;5.93;;;0.60;38.70;;;;;;10301713;28;20815;-71
2022/12/14 02:15:56;;;;;;;8.23;7.03;;;0.60;38.90;;;;;;10305787;28;20224;-71
2022/12/14 02:21:18;;;;;;;8.17;6.70;;;0.60;39.10;;;;;;10299138;28;20228;-71
2022/12/14 02:26:57;;;;;;;7.57;6.77;;;0.60;38.90;;;;;;10304200;28;20763;-71
2022/12/14 02:32:16;;;;;;;7.73;6.67;;;0.50;38.90;;;;;;10304945;28;20278;-71
2022/12/14 02:37:25;;;;;;;8.03;6.47;;;0.50;38.90;;;;;;10303722;28;20221;-71
2022/12/14 02:42:40;;;;;;;9.00;7.23;;;0.50;39.00;;;;;;10306070;28;20243;-71
2022/12/14 02:47:53;;;;;;;8.40;6.80;;;0.50;39.00;;;;;;10305354;28;20703;-71
2022/12/14 02:53:04;;;;;;;8.77;6.97;;;0.60;39.20;;;;;;10298720;28;20301;-71
2022/12/14 02:58:13;;;;;;;10.33;7.93;;;0.50;39.00;;;;;;10306899;28;20222;-71
2022/12/14 03:03:17;;;;;;;8.23;6.67;;;0.50;39.20;;;;;;10301573;28;20227;-71
2022/12/14 03:08:22;;;;;;;7.50;6.67;;;0.50;39.00;;;;;;10302068;28;20322;-71
2022/12/14 03:13:29;;;;;;;8.83;7.20;;;0.60;39.10;;;;;;10302894;28;20250;-71
2022/12/14 03:18:39;;;;;;;8.53;6.83;;;0.60;39.10;;;;;;10305308;28;20223;-71
2022/12/14 03:23:47;;;;;;;8.10;7.00;;;0.60;39.10;;;;;;10300941;28;20219;-70
2022/12/14 03:28:54;;;;;;;7.13;6.10;;;0.70;39.20;;;;;;10305774;28;20234;-72
2022/12/14 03:34:01;;;;;;;9.23;7.37;;;0.70;39.30;;;;;;10307249;28;20611;-71
2022/12/14 03:39:10;;;;;;;7.80;7.00;;;0.90;39.40;;;;;;10313343;28;20219;-71
2022/12/14 03:44:23;;;;;;;7.47;6.77;;;0.70;39.30;;;;;;10313499;28;20228;-71
2022/12/14 03:49:47;;;;;;;8.43;6.93;;;0.70;39.20;;;;;;10311386;28;20239;-71
2022/12/14 03:55:00;;;;;;;8.23;7.27;;;0.60;39.10;;;;;;10309953;28;20278;-70
2022/12/14 04:00:08;;;;;;;7.63;6.80;;;0.60;39.10;;;;;;10311475;28;20230;-70
2022/12/14 04:05:20;;;;;;;7.57;6.10;;;0.60;39.10;;;;;;10306833;28;20286;-71
2022/12/14 04:21:36;;;;;;;8.93;7.10;;;0.70;39.20;;;;;;10224217;28;20240;-69
2022/12/14 04:26:45;;;;;;;9.53;7.43;;;0.70;39.20;;;;;;10302942;28;20234;-69
2022/12/14 04:31:53;;;;;;;8.07;7.27;;;0.70;39.30;;;;;;10314607;28;20638;-69
2022/12/14 04:36:59;;;;;;;8.90;7.47;;;0.80;39.30;;;;;;10318324;28;20590;-69
2022/12/14 04:42:06;;;;;;;8.17;6.97;;;0.80;39.30;;;;;;10318440;28;20567;-70
2022/12/14 04:47:13;;;;;;;7.97;7.17;;;0.90;39.40;;;;;;10312087;28;20722;-69
2022/12/14 04:52:25;;;;;;;8.83;7.53;;;0.90;39.40;;;;;;10313564;28;20235;-71
2022/12/14 04:57:35;;;;;;;8.97;7.53;;;0.90;39.40;;;;;;10307142;28;20227;-71
2022/12/14 05:02:52;;;;;;;8.77;7.63;;;1.00;39.50;;;;;;10313596;28;20234;-68
2022/12/14 05:08:05;;;;;;;8.90;7.43;;;1.10;39.50;;;;;;10312196;28;20286;-71
2022/12/14 05:13:13;;;;;;;7.47;6.70;;;1.10;39.50;;;;;;10297479;28;20238;-71
2022/12/14 05:18:16;;;;;;;9.87;8.13;;;1.10;39.50;;;;;;10311917;28;20223;-70
2022/12/14 05:23:21;;;;;;;8.50;7.30;;;1.10;39.60;;;;;;10303945;28;20227;-70
2022/12/14 05:28:24;;;;;;;9.20;8.03;;;1.20;39.60;;;;;;10309454;28;20238;-70
2022/12/14 05:33:27;;;;;;;8.23;7.43;;;1.10;39.50;;;;;;10304167;28;20328;-70
2022/12/14 05:38:33;;;;;;;8.53;7.63;;;1.20;39.60;;;;;;10304646;28;20235;-70
2022/12/14 05:43:36;;;;;;;8.60;7.70;;;1.20;39.70;;;;;;10301438;28;20226;-69
2022/12/14 05:48:39;;;;;;;10.17;7.83;;;1.10;39.50;;;;;;10302527;28;20630;-71
2022/12/14 05:53:49;;;;;;;9.30;8.20;;;1.20;39.70;;;;;;10309021;28;20920;-69
2022/12/14 05:58:52;;;;;;;10.10;8.50;;;1.10;39.50;;;;;;10311524;28;20616;-69
2022/12/14 06:03:55;;;;;;;9.17;8.20;;;1.10;39.50;;;;;;10316526;28;20227;-69
2022/12/14 06:09:00;;;;;;;10.10;8.30;;;1.00;39.50;;;;;;10315808;28;20231;-69
2022/12/14 06:14:04;;;;;;;9.13;8.23;;;1.00;39.50;;;;;;10323317;28;20266;-69
2022/12/14 06:19:08;;;;;;;10.20;9.03;;;1.00;39.50;;;;;;10312319;28;20750;-69
2022/12/14 06:24:13;;;;;;;9.23;7.97;;;1.00;39.50;;;;;;10316987;28;20234;-69
2022/12/14 06:29:18;;;;;;;9.63;8.63;;;0.90;39.60;;;;;;10310607;28;20717;-69
2022/12/14 06:34:21;;;;;;;10.30;8.63;;;0.90;39.80;;;;;;10312706;28;20242;-69
2022/12/14 06:39:32;;;;;;;9.60;8.60;;;0.90;39.70;;;;;;10308237;28;20886;-69
2022/12/14 06:44:36;;;;;;;10.47;9.23;;;0.90;40.00;;;;;;10301702;28;20231;-69
2022/12/14 06:49:39;;;;;;;16.13;9.40;;;1.00;39.90;;;;;;10301252;28;20273;-68
2022/12/14 06:54:44;;;;;;;9.43;8.40;;;1.00;39.80;;;;;;10306209;28;20281;-68
2022/12/14 06:59:47;;;;;;;10.60;8.77;;;1.00;39.70;;;;;;10299937;28;20707;-68
2022/12/14 07:04:50;;;;;;;10.97;9.53;;;1.00;39.70;;;;;;10299856;28;20771;-68
2022/12/14 07:09:54;;;;;;;11.63;9.53;;;1.00;39.50;;;;;;10308497;28;20285;-68
2022/12/14 07:14:58;;;;;;;9.93;8.93;;;0.90;39.40;;;;;;10305343;28;20599;-72
2022/12/14 07:20:02;;;;;;;10.87;9.30;;;0.90;39.90;;;;;;10311330;28;20250;-72
2022/12/14 07:25:07;;;;;;;9.20;8.23;;;0.90;39.90;;;;;;10306071;28;20238;-68
2022/12/14 07:30:11;;;;;;;10.97;8.77;;;0.90;40.00;;;;;;10316669;28;20270;-68
2022/12/14 07:35:15;;;;;;;10.03;8.27;;;1.00;40.00;;;;;;10312995;28;20224;-69
2022/12/14 07:40:20;;;;;;;12.80;8.70;;;1.00;40.00;;;;;;10308862;28;20235;-69
2022/12/14 07:45:24;;;;;;;9.90;8.90;;;1.10;40.00;;;;;;10310198;28;20234;-67
2022/12/14 07:50:27;;;;;;;10.17;8.43;;;1.20;40.00;;;;;;10313256;28;20230;-71
2022/12/14 07:55:35;;;;;;;11.60;9.60;;;1.20;40.00;;;;;;10310907;28;20274;-71
2022/12/14 08:00:38;;;;;;;11.30;9.63;;;1.20;39.80;;;;;;10300173;28;20234;-69
2022/12/14 08:05:41;;;;;;;12.13;10.17;;;1.30;40.00;;;;;;10306912;28;20230;-69
2022/12/14 08:10:48;;;;;;;12.90;10.17;;;1.30;39.80;;;;;;10301271;28;20239;-69
2022/12/14 08:15:51;;;;;;;11.30;9.70;;;1.30;39.70;;;;;;10308185;28;20230;-68
2022/12/14 08:20:54;;;;;;;12.63;9.93;;;1.30;39.90;;;;;;10305006;28;20228;-68
2022/12/14 08:26:00;;;;;;;13.03;10.90;;;1.30;39.80;;;;;;10302525;28;20226;-69
2022/12/14 08:31:05;;;;;;;10.83;9.73;;;1.30;39.70;;;;;;10310241;28;20680;-68
2022/12/14 08:36:11;;;;;;;11.07;9.50;;;1.30;39.80;;;;;;10309085;28;20322;-68
2022/12/14 08:41:16;;;;;;;10.47;9.37;;;1.30;40.00;;;;;;10308348;28;20597;-68
2022/12/14 08:46:20;;;;;;;13.40;10.33;;;1.20;40.00;;;;;;10307968;28;20228;-68
2022/12/14 08:51:24;;;;;;;12.53;10.13;;;1.20;39.90;;;;;;10307027;28;20286;-69
2022/12/14 08:56:29;;;;;;;12.50;10.60;;;1.20;40.20;;;;;;10304991;28;20575;-68
2022/12/14 09:01:32;;;;;;;11.30;9.73;;;1.30;40.30;;;;;;10303979;28;20230;-68
2022/12/14 09:06:38;;;;;;;13.60;9.60;;;1.30;40.20;;;;;;10312078;28;20228;-68
2022/12/14 09:11:43;;;;;;;12.90;10.47;;;1.40;40.10;;;;;;10308476;28;20326;-69
2022/12/14 09:16:46;;;;;;;11.40;10.00;;;1.40;40.00;;;;;;10313986;28;20226;-71
2022/12/14 09:21:49;;;;;;;10.73;9.10;;;1.40;40.20;;;;;;10301534;28;20861;-71
2022/12/14 09:26:54;;;;;;;10.23;9.17;;;1.40;40.40;;;;;;10307610;28;20215;-71
2022/12/14 09:31:57;;;;;;;10.60;9.40;;;1.40;40.50;;;;;;10305815;28;20227;-69
2022/12/14 09:37:03;;;;;;;10.83;9.70;;;1.50;40.50;;;;;;10304542;28;20219;-68
2022/12/14 09:42:28;;;;;;;12.07;9.90;;;1.60;40.40;;;;;;10306296;28;20231;-68
2022/12/14 09:47:37;;;;;;;11.03;9.83;;;1.70;40.40;;;;;;10306030;28;20227;-68
2022/12/14 09:52:44;;;;;;;11.00;9.63;;;1.70;40.40;;;;;;10299323;28;20231;-68
2022/12/14 09:57:55;;;;;;;10.87;9.53;;;1.70;40.40;;;;;;10304753;28;20833;-68
2022/12/14 10:03:27;;;;;;;10.87;9.73;;;1.70;40.40;;;;;;10304381;28;20227;-67
2022/12/14 10:08:39;;;;;;;10.87;9.77;;;1.70;40.50;;;;;;10306049;28;20230;-67
2022/12/14 10:13:51;;;;;;;10.63;9.53;;;1.70;40.60;;;;;;10309863;28;20692;-67
2022/12/14 10:19:15;;;;;;;12.80;10.43;;;1.80;40.90;;;;;;10311414;28;20223;-67
2022/12/14 10:24:24;;;;;;;11.60;10.00;;;1.90;41.10;;;;;;10306220;28;20239;-67
2022/12/14 10:29:33;;;;;;;11.43;9.90;;;2.00;40.90;;;;;;10303949;28;20239;-67
2022/12/14 10:34:40;;;;;;;11.93;10.03;;;2.00;40.90;;;;;;10309251;28;20227;-67
2022/12/14 10:39:51;;;;;;;10.30;9.20;;;2.00;40.70;;;;;;10313893;28;20227;-67
2022/12/14 10:45:10;;;;;;;17.90;13.93;;;2.10;40.90;;;;;;10305178;28;20290;-67
2022/12/14 10:50:45;;;;;;;14.03;11.80;;;2.10;40.90;;;;;;10306688;28;20223;-67
2022/12/14 10:55:56;;;;;;;11.00;9.83;;;2.20;41.00;;;;;;10308002;28;20332;-67
2022/12/14 11:01:00;;;;;;;11.43;10.17;;;2.20;40.90;;;;;;10303654;28;20583;-67
2022/12/14 11:06:10;;;;;;;11.20;10.07;;;2.30;41.10;;;;;;10303129;28;20227;-68
2022/12/14 11:11:17;;;;;;;10.53;9.47;;;2.40;41.30;;;;;;10310726;28;20239;-67
2022/12/14 11:16:33;;;;;;;11.37;10.17;;;2.40;41.10;;;;;;10302977;28;24107;-67
2022/12/14 11:21:39;;;;;;;11.63;10.37;;;2.50;41.10;;;;;;10311281;28;20269;-67
2022/12/14 11:26:43;;;;;;;11.00;9.87;;;2.50;41.00;;;;;;10310480;28;20228;-67
2022/12/14 11:31:51;;;;;;;11.23;10.03;;;2.70;41.20;;;;;;10310685;28;20718;-67
2022/12/14 11:36:54;;;;;;;11.57;10.27;;;2.60;41.20;;;;;;10312513;28;20227;-72
2022/12/14 11:42:01;;;;;;;12.37;11.03;;;2.70;41.30;;;;;;10304396;28;20231;-72
2022/12/14 11:47:12;;;;;;;13.53;10.90;;;2.90;41.50;;;;;;10301038;28;20327;-71
2022/12/14 11:52:17;;;;;;;12.53;10.93;;;3.00;42.00;;;;;;10297175;28;20231;-72
2022/12/14 11:57:26;;;;;;;12.97;10.73;;;2.90;41.50;;;;;;10300191;28;20224;-68
2022/12/14 12:02:34;;;;;;;11.93;10.67;;;3.00;41.50;;;;;;10305401;28;20231;-68
2022/12/14 12:07:39;;;;;;;10.67;9.57;;;3.00;41.30;;;;;;10305058;28;20230;-71
2022/12/14 12:12:49;;;;;;;12.63;11.10;;;3.10;41.20;;;;;;10309862;28;20234;-71
2022/12/14 12:18:05;;;;;;;12.27;11.07;;;3.00;41.40;;;;;;10313214;28;20310;-71
2022/12/14 12:23:14;;;;;;;13.33;11.33;;;3.10;41.40;;;;;;10308968;28;20238;-69
2022/12/14 12:28:24;;;;;;;16.27;12.67;;;3.00;41.40;;;;;;10313402;28;20251;-67
2022/12/14 12:33:35;;;;;;;14.23;12.73;;;3.10;41.30;;;;;;10314567;28;20242;-67
2022/12/14 12:38:56;;;;;;;13.93;12.50;;;3.20;41.50;;;;;;10312183;28;20588;-68
2022/12/14 12:44:06;;;;;;;13.30;11.93;;;3.10;41.60;;;;;;10312809;28;20227;-68
2022/12/14 12:49:14;;;;;;;12.17;10.93;;;3.10;41.40;;;;;;10303117;28;20220;-68
2022/12/14 12:54:22;;;;;;;13.07;11.53;;;3.20;41.60;;;;;;10307699;28;20235;-68
2022/12/14 12:59:34;;;;;;;13.73;12.27;;;3.20;42.20;;;;;;10306386;28;20238;-67
2022/12/14 13:04:41;;;;;;;12.00;10.70;;;3.20;41.50;;;;;;10309843;28;20876;-67
2022/12/14 13:09:57;;;;;;;12.97;11.57;;;3.30;41.50;;;;;;10310344;28;20219;-67
2022/12/14 13:15:18;;;;;;;10.90;9.80;;;3.30;41.30;;;;;;10305766;28;20676;-68
2022/12/14 13:20:26;;;;;;;10.87;9.77;;;3.30;41.50;;;;;;10305751;28;20231;-67
2022/12/14 13:25:41;;;;;;;11.90;10.67;;;3.30;41.30;;;;;;10308336;28;20246;-67
2022/12/14 13:31:01;;;;;;;11.37;9.33;;;3.40;41.50;;;;;;10305132;28;20594;-67
2022/12/14 13:36:25;;;;;;;12.07;10.87;;;3.40;41.60;;;;;;10306137;28;20596;-72
2022/12/14 13:41:37;;;;;;;12.40;11.23;;;3.50;41.80;;;;;;10310887;28;20230;-72
2022/12/14 13:46:40;;;;;;;13.43;12.13;;;3.50;41.60;;;;;;10304692;28;20231;-72
2022/12/14 13:51:49;;;;;;;18.80;16.00;;;3.50;41.50;;;;;;10305354;28;20226;-72
2022/12/14 13:57:05;;;;;;;14.90;13.30;;;3.60;41.60;;;;;;10306761;28;20754;-67
2022/12/14 14:02:39;;;;;;;26.77;18.80;;;3.60;41.60;;;;;;10306498;28;20222;-68
2022/12/14 14:07:53;;;;;;;13.90;12.43;;;3.60;41.60;;;;;;10309878;28;20229;-68
2022/12/14 14:12:56;;;;;;;13.97;12.53;;;3.60;41.60;;;;;;10301006;28;20285;-69
2022/12/14 14:18:12;;;;;;;12.47;11.20;;;3.60;41.60;;;;;;10300358;28;20231;-69
2022/12/14 14:23:51;;;;;;;12.43;11.23;;;3.50;41.50;;;;;;10306442;28;20227;-72
2022/12/14 14:29:19;;;;;;;11.97;10.80;;;3.50;41.70;;;;;;10302019;28;20626;-73
2022/12/14 14:34:36;;;;;;;12.23;11.03;;;3.60;41.80;;;;;;10311933;28;21018;-69
2022/12/14 14:39:42;;;;;;;16.50;14.60;;;3.70;41.90;;;;;;10307467;28;20219;-72
2022/12/14 14:45:07;;;;;;;13.40;12.00;;;3.60;41.60;;;;;;10303668;28;20235;-72
2022/12/14 14:50:23;;;;;;;13.63;12.20;;;3.60;41.60;;;;;;10305345;28;20219;-72
2022/12/14 14:55:58;;;;;;;12.87;11.13;;;3.50;41.70;;;;;;10304943;28;20245;-67
2022/12/14 15:01:25;;;;;;;13.43;11.60;;;3.60;41.90;;;;;;10302658;28;20223;-69
2022/12/14 15:06:31;;;;;;;12.83;11.53;;;3.50;41.70;;;;;;10310193;28;20259;-68
2022/12/14 15:11:46;;;;;;;13.87;12.30;;;3.60;42.00;;;;;;10303208;28;20223;-69
2022/12/14 15:16:50;;;;;;;14.10;12.63;;;3.60;41.90;;;;;;10298724;28;20725;-69
2022/12/14 15:21:57;;;;;;;13.43;12.13;;;3.60;41.60;;;;;;10303442;28;20338;-69
2022/12/14 15:27:09;;;;;;;14.07;12.57;;;3.60;41.60;;;;;;10300949;28;20261;-69
2022/12/14 15:32:16;;;;;;;13.63;12.20;;;3.50;41.50;;;;;;10309227;28;20774;-68
2022/12/14 15:37:27;;;;;;;14.83;13.23;;;3.60;41.60;;;;;;10311696;28;20309;-69
2022/12/14 15:42:32;;;;;;;14.27;12.77;;;3.50;41.50;;;;;;10315373;28;20231;-72
2022/12/14 15:47:35;;;;;;;13.90;12.47;;;3.50;41.50;;;;;;10315856;28;20219;-67
2022/12/14 15:52:39;;;;;;;15.90;12.27;;;3.50;41.50;;;;;;10315181;28;20222;-68
2022/12/14 15:57:43;;;;;;;13.03;11.67;;;3.60;41.60;;;;;;10306241;28;20227;-69
2022/12/14 16:02:47;;;;;;;12.37;11.10;;;3.40;41.40;;;;;;10311885;28;20237;-67
2022/12/14 16:07:54;;;;;;;15.40;13.77;;;3.40;41.40;;;;;;10317356;28;20229;-67
2022/12/14 16:13:03;;;;;;;15.37;13.60;;;3.40;41.40;;;;;;10314640;28;20225;-67
2022/12/14 16:18:11;;;;;;;14.63;13.10;;;3.50;41.50;;;;;;10311521;28;20226;-69
2022/12/14 16:23:27;;;;;;;14.23;12.73;;;3.40;41.40;;;;;;10306786;28;20242;-69
2022/12/14 16:28:34;;;;;;;17.27;13.33;;;3.40;41.40;;;;;;10314668;28;20266;-69
2022/12/14 16:33:39;;;;;;;14.83;12.27;;;3.40;41.40;;;;;;10313004;28;20286;-67
2022/12/14 16:38:55;;;;;;;14.07;12.60;;;3.50;41.50;;;;;;10313700;28;20230;-67
2022/12/14 16:44:01;;;;;;;16.63;13.53;;;3.30;41.90;;;;;;10319612;28;20222;-69
2022/12/14 16:49:29;;;;;;;16.13;14.20;;;3.30;41.70;;;;;;10312811;28;20231;-69
2022/12/14 16:54:33;;;;;;;16.50;14.57;;;3.30;42.10;;;;;;10308414;28;20230;-69
2022/12/14 16:59:42;;;;;;;17.13;14.23;;;3.30;41.50;;;;;;10310868;28;20227;-68
2022/12/14 17:04:45;;;;;;;16.53;13.30;;;3.20;41.70;;;;;;10309438;28;20238;-69
2022/12/14 17:09:48;;;;;;;13.43;11.90;;;3.30;41.80;;;;;;10306278;28;20223;-69
2022/12/14 17:14:53;;;;;;;15.37;13.00;;;3.20;42.20;;;;;;10308864;28;20719;-69
2022/12/14 17:19:56;;;;;;;16.17;13.27;;;3.30;42.70;;;;;;10302407;28;20223;-73
2022/12/14 17:25:01;;;;;;;16.00;13.57;;;3.30;42.60;;;;;;10312037;28;20287;-73
2022/12/14 17:30:07;;;;;;;14.40;12.90;;;3.40;42.60;;;;;;10314956;28;20283;-69
2022/12/14 17:35:16;;;;;;;16.60;14.70;;;3.40;42.80;;;;;;10307109;28;20247;-72
2022/12/14 17:40:19;;;;;;;16.37;14.67;;;3.50;42.60;;;;;;10306719;28;20246;-73
2022/12/14 17:45:26;;;;;;;15.47;13.60;;;3.50;42.00;;;;;;10304902;28;20231;-73
2022/12/14 17:50:29;;;;;;;16.73;14.93;;;3.50;42.00;;;;;;10307782;28;20227;-73
2022/12/14 17:55:32;;;;;;;16.40;13.27;;;3.40;41.90;;;;;;10309199;28;20223;-72
2022/12/14 18:05:59;;;;;;;13.87;12.37;;;3.60;42.60;;;;;;10307598;28;20227;-68
2022/12/14 18:11:05;;;;;;;14.57;13.07;;;3.50;42.50;;;;;;10314552;28;20230;-68
2022/12/14 18:16:19;;;;;;;15.07;13.47;;;3.50;42.40;;;;;;10302871;28;20239;-72
2022/12/14 18:21:24;;;;;;;16.47;13.10;;;3.80;42.60;;;;;;10301163;28;20843;-73
2022/12/14 18:26:27;;;;;;;17.97;15.37;;;3.60;42.40;;;;;;10301340;28;20243;-69
2022/12/14 18:31:36;;;;;;;14.63;13.07;;;3.70;42.10;;;;;;10308210;28;20236;-69
2022/12/14 18:36:39;;;;;;;16.87;14.50;;;3.60;42.00;;;;;;10306854;28;20226;-73
2022/12/14 18:41:42;;;;;;;16.40;14.37;;;3.60;41.60;;;;;;10308096;28;20219;-72
2022/12/14 18:46:48;;;;;;;18.60;16.57;;;3.60;41.90;;;;;;10302640;28;20223;-74
2022/12/14 18:51:51;;;;;;;20.40;17.50;;;3.60;41.70;;;;;;10308658;28;20732;-73
2022/12/14 18:56:54;;;;;;;19.17;17.17;;;3.60;41.60;;;;;;10307129;28;20233;-69
2022/12/14 19:01:59;;;;;;;18.33;16.33;;;3.50;41.60;;;;;;10303616;28;20730;-73
2022/12/14 19:07:02;;;;;;;20.47;16.77;;;3.50;41.50;;;;;;10312156;28;20222;-69
2022/12/14 19:12:06;;;;;;;16.47;14.57;;;3.40;41.50;;;;;;10313524;28;20238;-69
2022/12/14 19:17:10;;;;;;;18.40;16.50;;;3.30;41.80;;;;;;10314169;28;20745;-72
2022/12/14 19:22:13;;;;;;;18.90;16.90;;;3.30;42.00;;;;;;10311052;28;20254;-72
2022/12/14 19:27:17;;;;;;;23.50;16.33;;;3.30;42.20;;;;;;10311346;28;20808;-69
2022/12/14 19:32:41;;;;;;;19.33;15.73;;;3.20;42.20;;;;;;10307916;28;20723;-69
2022/12/14 19:37:46;;;;;;;18.87;16.83;;;3.30;42.60;;;;;;10312061;28;20235;-72
2022/12/14 19:42:50;;;;;;;57.83;33.17;;;3.30;42.60;;;;;;10313162;28;20237;-73
2022/12/14 19:47:54;;;;;;;35.13;23.63;;;3.40;42.70;;;;;;10316087;28;20282;-69
2022/12/14 19:52:57;;;;;;;36.57;27.97;;;3.50;42.60;;;;;;10315805;28;20242;-74
2022/12/14 19:58:00;;;;;;;26.57;19.57;;;3.50;42.40;;;;;;10315211;28;20227;-72
2022/12/14 20:03:05;;;;;;;23.63;19.23;;;3.70;42.60;;;;;;10308785;28;20231;-72
2022/12/14 20:08:08;;;;;;;22.27;18.77;;;3.70;42.70;;;;;;10313902;28;20214;-73
2022/12/14 20:13:11;;;;;;;19.00;16.23;;;3.80;42.60;;;;;;10309895;28;20234;-69
2022/12/14 20:18:18;;;;;;;20.23;17.93;;;3.70;42.40;;;;;;10314869;28;20834;-70
2022/12/14 20:23:22;;;;;;;18.93;16.40;;;3.70;42.40;;;;;;10310707;28;20231;-70
2022/12/14 20:28:28;;;;;;;19.57;16.27;;;3.70;42.40;;;;;;10306076;28;20231;-68
2022/12/14 20:33:33;;;;;;;24.80;18.93;;;3.70;42.30;;;;;;10312872;28;20978;-68
2022/12/14 20:38:38;;;;;;;22.17;17.30;;;3.60;42.50;;;;;;10311359;28;20304;-70
2022/12/14 20:43:44;;;;;;;20.73;17.17;;;3.60;42.40;;;;;;10308860;28;20227;-73
2022/12/14 20:48:49;;;;;;;20.47;17.93;;;3.60;42.50;;;;;;10302893;28;20586;-74
2022/12/14 20:53:52;;;;;;;20.33;17.67;;;3.60;42.60;;;;;;10307389;28;20290;-68
2022/12/14 20:58:56;;;;;;;19.60;17.60;;;3.60;42.60;;;;;;10306214;28;20232;-68
2022/12/14 21:04:02;;;;;;;19.83;17.30;;;3.60;42.70;;;;;;10308373;28;20245;-68
2022/12/14 21:09:08;;;;;;;17.93;15.10;;;3.60;42.90;;;;;;10308724;28;20239;-68
2022/12/14 21:14:13;;;;;;;16.83;15.13;;;3.60;42.80;;;;;;10308963;28;20584;-74
2022/12/14 21:19:18;;;;;;;17.03;15.23;;;3.70;42.90;;;;;;10309120;28;20588;-68
2022/12/14 21:24:22;;;;;;;17.77;15.90;;;3.70;42.80;;;;;;10308596;28;20311;-68
2022/12/14 21:29:46;;;;;;;16.60;14.90;;;3.80;42.60;;;;;;10299607;28;20223;-68
2022/12/14 21:34:51;;;;;;;18.87;16.73;;;3.80;42.60;;;;;;10304553;28;20233;-68
2022/12/14 21:39:54;;;;;;;19.50;17.03;;;3.90;42.80;;;;;;10305423;28;20223;-68
2022/12/14 21:44:58;;;;;;;16.73;15.00;;;3.80;42.50;;;;;;10303727;28;20861;-68
2022/12/14 21:50:02;;;;;;;16.93;15.10;;;3.80;42.60;;;;;;10309092;28;20289;-74
2022/12/14 21:55:06;;;;;;;17.63;15.73;;;3.80;42.60;;;;;;10303093;28;20332;-68
2022/12/14 22:00:11;;;;;;;19.67;17.10;;;3.80;42.70;;;;;;10304916;28;20293;-68
2022/12/14 22:05:16;;;;;;;18.67;16.73;;;3.90;42.60;;;;;;10302317;28;20235;-70
2022/12/14 22:10:19;;;;;;;20.20;18.10;;;3.80;42.50;;;;;;10309440;28;20235;-74
2022/12/14 22:15:27;;;;;;;20.10;16.57;;;3.80;42.50;;;;;;10300518;28;20239;-74
2022/12/14 22:20:31;;;;;;;20.17;16.80;;;3.80;42.60;;;;;;10299464;28;20235;-67
2022/12/14 22:25:34;;;;;;;18.03;16.17;;;3.80;42.70;;;;;;10300189;28;20280;-67
2022/12/14 22:30:38;;;;;;;17.07;14.97;;;3.80;42.60;;;;;;10304367;28;20250;-67
2022/12/14 22:35:42;;;;;;;17.77;15.90;;;3.90;42.60;;;;;;10302027;28;20231;-67
2022/12/14 22:40:45;;;;;;;18.47;16.53;;;3.90;42.50;;;;;;10305514;28;20214;-74
2022/12/14 22:45:49;;;;;;;18.10;16.27;;;3.80;42.40;;;;;;10301732;28;20230;-74
2022/12/14 22:50:57;;;;;;;17.57;15.77;;;3.80;42.40;;;;;;10300519;28;20302;-74
2022/12/14 22:56:07;;;;;;;18.23;16.13;;;3.80;42.40;;;;;;10300173;28;20235;-69
2022/12/14 23:01:10;;;;;;;17.63;15.77;;;3.80;42.40;;;;;;10299998;28;20219;-73
2022/12/14 23:06:17;;;;;;;18.33;16.00;;;3.80;42.30;;;;;;10301702;28;20645;-73
